Hilltop Mall, California
Current Conditions -  °F | °C
As of 8:53 PM on Thursday 30 Oct 2014 (Local Time) from KCCR Reporting Station
Clear Clear  
Wind Chill: 62°   Ceiling: Unl
Heat Index: 62°   Visibility: 10mi
Dew Point: 56°   Wind: 7mph
Humidity: 80%   Direction: 290°WNW
Pressure: 29.88"   Gusts: NA
Location:  37.979°N, 122.336°W
Report Text: KCCR 310353Z 29006KT 10SM CLR 17/13 A2988 RMK AO2 SLP104 T01670133
Loading
Personal Weather Stations






























Interactive Weather Map
Tropical Storm Tracking
New forecast layout! Learn more

10-Day Weather Forecast

Advertisements
Track Severe Weather on mobile